Terminal Aerodrome Forecast
Issued by NWS Kansas City/Pleasant Hill, MO

Home | Current Version | Previous Version | Text Only | Print | Product List | Glossary On
Versions: 1 2 3 4 5 6 7 8 9 10 11 12 13 14 15
000
FTUS43 KEAX 031700
TAFMCI
TAF
KMCI 031720Z 0318/0418 19019G28KT P6SM SCT100
     FM040000 19013KT P6SM SCT150
     FM040800 20010KT 5SM -TSRA BKN050CB
     FM041200 20009KT P6SM VCTS SCT050CB=

USA.gov is the U.S. government's official web portal to all federal, state and local government web resources and services.